createdAt,value
2023-02-12T00:00:11.207Z,103810.13
2023-02-12T00:07:10.891Z,103819.44
2023-02-12T00:14:06.482Z,103809.72
2023-02-12T00:16:34.507Z,103800.75
2023-02-12T00:19:07.988Z,103799.69
2023-02-12T00:21:36.312Z,103801.47
2023-02-12T00:24:08.775Z,103816.06
2023-02-12T00:26:44.250Z,103817.59
2023-02-12T00:29:13.822Z,103820.94
2023-02-12T00:31:42.418Z,103812.88
2023-02-12T00:34:18.141Z,103800.66
2023-02-12T00:36:46.148Z,103807.59
2023-02-12T00:39:15.501Z,103805.88
2023-02-12T00:41:46.644Z,103802.44
2023-02-12T00:44:16.054Z,103816.66
2023-02-12T00:46:46.885Z,103806.91
2023-02-12T00:49:16.417Z,103778.19
2023-02-12T00:51:45.306Z,103800.75
2023-02-12T00:54:13.304Z,103784.06
2023-02-12T00:56:42.781Z,103785.22
2023-02-12T00:59:10.731Z,103784.56
2023-02-12T01:01:41.178Z,103782.19
2023-02-12T01:04:10.361Z,103780.66
2023-02-12T01:06:38.287Z,103779.03
2023-02-12T01:09:06.245Z,103774.91
2023-02-12T01:11:34.200Z,103760.53
2023-02-12T01:14:05.267Z,103773.53
2023-02-12T01:16:36.573Z,103758.09
2023-02-12T01:19:05.330Z,103755.47
2023-02-12T01:21:35.316Z,103763.28
2023-02-12T01:24:03.618Z,103776.44
2023-02-12T01:26:36.149Z,103766.94
2023-02-12T01:29:14.199Z,103752.94
2023-02-12T01:31:46.272Z,103768.72
2023-02-12T01:34:14.300Z,103764.41
2023-02-12T01:36:42.276Z,103763.50
2023-02-12T01:39:11.755Z,103767.94
2023-02-12T01:41:41.597Z,103752.34
2023-02-12T01:44:13.636Z,103749.69
2023-02-12T01:46:44.249Z,103747.09
2023-02-12T01:49:39.267Z,103748.00
2023-02-12T01:52:08.367Z,103752.47
2023-02-12T01:54:36.316Z,103748.28
2023-02-12T01:57:04.783Z,103728.50
2023-02-12T01:59:34.146Z,103742.41
2023-02-12T02:02:02.221Z,103758.91
2023-02-12T02:04:30.912Z,103747.69
2023-02-12T02:06:59.865Z,103760.84
2023-02-12T02:09:27.908Z,103764.31
2023-02-12T02:12:13.783Z,103754.81
2023-02-12T02:14:43.243Z,103746.16
2023-02-12T02:17:41.337Z,103764.47
2023-02-12T02:20:44.722Z,103750.59
2023-02-12T02:23:27.212Z,103762.88
2023-02-12T02:26:20.360Z,103754.16
2023-02-12T02:29:00.172Z,103745.50
2023-02-12T02:31:32.006Z,103746.50
2023-02-12T02:34:02.963Z,103742.25
2023-02-12T02:36:35.504Z,103733.63
2023-02-12T02:39:06.583Z,103724.28
2023-02-12T02:41:38.746Z,103746.13
2023-02-12T02:44:24.933Z,103744.31
2023-02-12T02:46:54.692Z,103742.56
2023-02-12T02:49:24.470Z,103741.72
2023-02-12T02:51:53.973Z,103757.53
2023-02-12T02:54:25.001Z,103756.72
2023-02-12T02:56:53.792Z,103728.94
2023-02-12T02:59:24.671Z,103746.31
2023-02-12T03:01:58.192Z,103751.66
2023-02-12T03:04:28.413Z,103743.78
2023-02-12T03:06:58.817Z,103746.50
2023-02-12T03:09:29.839Z,103740.41
2023-02-12T03:11:59.597Z,103727.56
2023-02-12T03:14:32.861Z,103737.09
2023-02-12T03:17:05.377Z,103723.13
2023-02-12T03:19:34.618Z,103710.97
2023-02-12T03:22:06.991Z,103714.28
2023-02-12T03:24:37.190Z,103704.66
2023-02-12T03:27:08.792Z,103707.25
2023-02-12T03:29:36.779Z,103697.84
2023-02-12T03:32:20.477Z,103705.53
2023-02-12T03:34:50.662Z,103689.22
2023-02-12T03:37:20.694Z,103705.66
2023-02-12T03:39:53.416Z,103698.56
2023-02-12T03:42:29.135Z,103697.81
2023-02-12T03:45:00.928Z,103710.91
2023-02-12T03:47:36.488Z,103704.81
2023-02-12T03:50:08.297Z,103707.50
2023-02-12T03:52:45.396Z,103706.66
2023-02-12T03:55:13.581Z,103694.50
2023-02-12T03:57:46.077Z,103711.16
2023-02-12T04:00:18.851Z,103706.78
2023-02-12T04:02:49.790Z,103711.28
2023-02-12T04:05:19.049Z,103703.59
2023-02-12T04:07:47.214Z,103707.28
2023-02-12T04:10:17.741Z,103705.78
2023-02-12T04:12:50.195Z,103697.16
2023-02-12T04:15:32.841Z,103708.53
2023-02-12T04:18:08.187Z,103703.28
2023-02-12T04:20:43.224Z,103702.69
2023-02-12T04:26:05.590Z,103699.94
2023-02-12T04:28:40.021Z,103707.88
2023-02-12T04:31:10.237Z,103698.25
2023-02-12T04:33:42.552Z,103702.63
2023-02-12T04:36:14.297Z,103695.00
2023-02-12T04:38:44.870Z,103706.06
2023-02-12T04:41:12.938Z,103703.44
2023-02-12T04:43:41.725Z,103703.44
2023-02-12T04:46:09.920Z,103683.53
2023-02-12T04:48:40.938Z,103700.97
2023-02-12T04:51:10.587Z,103695.88
2023-02-12T04:53:39.362Z,103694.13
2023-02-12T04:56:10.595Z,103689.03
2023-02-12T04:58:38.817Z,103694.44
2023-02-12T05:01:06.980Z,103680.66
2023-02-12T05:03:35.201Z,103691.00
2023-02-12T05:06:08.902Z,103685.84
2023-02-12T05:08:38.259Z,103673.75
2023-02-12T05:11:07.306Z,103667.94
2023-02-12T05:13:35.330Z,103681.63
2023-02-12T05:16:05.150Z,103678.31
2023-02-12T05:18:33.255Z,103684.34
2023-02-12T05:21:05.647Z,103677.47
2023-02-12T05:23:34.754Z,103686.34
2023-02-12T05:26:06.324Z,103672.84
2023-02-12T05:28:34.472Z,103696.13
2023-02-12T05:31:10.063Z,103704.88
2023-02-12T05:33:38.192Z,103694.34
2023-02-12T05:36:07.057Z,103697.53
2023-02-12T05:38:35.367Z,103692.91
2023-02-12T05:41:13.768Z,103691.78
2023-02-12T05:43:41.895Z,103682.13
2023-02-12T05:46:09.994Z,103673.56
2023-02-12T05:48:38.115Z,103688.88
2023-02-12T05:51:06.780Z,103687.06
2023-02-12T05:53:34.964Z,103649.88
2023-02-12T05:56:14.439Z,103684.19
2023-02-12T05:58:43.443Z,103682.41
2023-02-12T06:01:15.166Z,103656.53
2023-02-12T06:03:43.244Z,103682.16
2023-02-12T06:06:14.588Z,103662.75
2023-02-12T06:08:44.270Z,103663.53
2023-02-12T06:11:18.020Z,103685.94
2023-02-12T06:13:46.164Z,103695.44
2023-02-12T06:16:21.054Z,103684.78
2023-02-12T06:18:49.267Z,103694.22
2023-02-12T06:21:17.264Z,103687.03
2023-02-12T06:23:45.281Z,103687.69
2023-02-12T06:26:14.695Z,103683.38
2023-02-12T06:28:45.430Z,103660.66
2023-02-12T06:31:23.197Z,103673.13
2023-02-12T06:33:53.994Z,103653.91
2023-02-12T06:36:23.792Z,103666.84
2023-02-12T06:38:52.750Z,103651.22
2023-02-12T06:41:22.238Z,103677.00
2023-02-12T06:43:50.471Z,103661.88
2023-02-12T06:46:18.465Z,103673.72
2023-02-12T06:48:48.820Z,103667.31
2023-02-12T06:51:17.765Z,103672.13
2023-02-12T06:53:45.728Z,103678.88
2023-02-12T06:56:14.103Z,103662.94
2023-02-12T06:58:44.208Z,103672.19
2023-02-12T07:01:17.732Z,103677.91
2023-02-12T07:03:46.150Z,103683.19
2023-02-12T07:06:15.571Z,103672.72
2023-02-12T07:08:43.574Z,103671.66
2023-02-12T07:11:13.828Z,103678.53
2023-02-12T07:13:44.195Z,103670.69
2023-02-12T07:16:13.849Z,103678.50
2023-02-12T07:18:44.435Z,103689.06
2023-02-12T07:21:13.361Z,103685.41
2023-02-12T07:23:41.450Z,103686.13
2023-02-12T07:26:10.482Z,103683.34
2023-02-12T07:28:40.789Z,103684.03
2023-02-12T07:31:13.896Z,103677.75
2023-02-12T07:33:42.486Z,103685.63
2023-02-12T07:36:11.558Z,103685.50
2023-02-12T07:38:40.413Z,103673.13
2023-02-12T07:41:10.937Z,103672.16
2023-02-12T07:43:39.979Z,103683.88
2023-02-12T07:46:11.078Z,103681.25
2023-02-12T07:48:39.777Z,103682.06
2023-02-12T07:51:15.677Z,103682.16
2023-02-12T07:53:46.540Z,103681.81
2023-02-12T07:56:18.742Z,103682.72
2023-02-12T07:58:50.103Z,103685.38
2023-02-12T08:01:26.538Z,103682.63
2023-02-12T08:03:55.913Z,103667.22
2023-02-12T08:06:30.381Z,103680.91
2023-02-12T08:09:07.135Z,103688.53
2023-02-12T08:11:36.965Z,103692.72
2023-02-12T08:14:07.878Z,103694.28
2023-02-12T08:16:38.963Z,103675.06
2023-02-12T08:21:52.371Z,103674.13
2023-02-12T08:24:22.132Z,103689.41
2023-02-12T08:26:57.083Z,103661.31
2023-02-12T08:29:30.154Z,103687.81
2023-02-12T08:32:06.681Z,103676.19
2023-02-12T08:34:38.822Z,103666.19
2023-02-12T08:37:10.820Z,103678.19
2023-02-12T08:39:40.960Z,103652.75
2023-02-12T08:42:09.771Z,103672.38
2023-02-12T08:44:38.243Z,103665.88
2023-02-12T08:47:07.873Z,103669.94
2023-02-12T08:49:36.089Z,103663.50
2023-02-12T08:52:05.805Z,103663.50
2023-02-12T08:54:34.008Z,103664.06
2023-02-12T08:57:02.908Z,103672.59
2023-02-12T08:59:31.373Z,103666.31
2023-02-12T09:02:02.044Z,103675.84
2023-02-12T09:04:31.612Z,103671.28
2023-02-12T09:07:02.484Z,103671.84
2023-02-12T09:09:30.822Z,103671.78
2023-02-12T09:12:02.473Z,103656.81
2023-02-12T09:17:19.660Z,103667.50
2023-02-12T09:19:51.404Z,103641.13
2023-02-12T09:25:06.826Z,103655.97
2023-02-12T09:27:36.153Z,103670.59
2023-02-12T09:30:04.621Z,103654.56
2023-02-12T09:32:35.701Z,103661.25
2023-02-12T09:35:07.437Z,103659.44
2023-02-12T09:37:35.885Z,103666.97
2023-02-12T09:40:03.861Z,103662.97
2023-02-12T09:42:56.652Z,103652.66
2023-02-12T09:45:41.147Z,103658.88
2023-02-12T09:48:43.749Z,103682.34
2023-02-12T09:51:23.844Z,103686.78
2023-02-12T09:54:06.317Z,103660.19
2023-02-12T09:56:35.896Z,103675.44
2023-02-12T09:59:13.672Z,103677.03
2023-02-12T10:01:55.766Z,103683.09
2023-02-12T10:04:26.368Z,103689.19
2023-02-12T10:07:02.793Z,103675.72
2023-02-12T10:10:03.629Z,103677.84
2023-02-12T10:12:40.521Z,103666.97
2023-02-12T10:15:19.350Z,103661.88
2023-02-12T10:17:52.690Z,103664.09
2023-02-12T10:20:41.948Z,103663.72
2023-02-12T10:23:48.384Z,103664.56
2023-02-12T10:26:30.449Z,103669.88
2023-02-12T10:29:08.737Z,103672.00
2023-02-12T10:31:38.671Z,103653.63
2023-02-12T10:34:14.419Z,103646.59
2023-02-12T10:36:45.552Z,103663.09
2023-02-12T10:39:25.874Z,103663.53
2023-02-12T10:41:57.430Z,103667.75
2023-02-12T10:44:25.730Z,103675.56
2023-02-12T10:46:57.101Z,103668.38
2023-02-12T10:49:25.266Z,103665.72
2023-02-12T10:52:06.993Z,103666.34
2023-02-12T10:54:38.710Z,103666.34
2023-02-12T10:57:16.939Z,103652.44
2023-02-12T10:59:45.504Z,103658.97
2023-02-12T11:02:21.488Z,103660.38
2023-02-12T11:04:49.819Z,103654.03
2023-02-12T11:07:20.286Z,103646.66
2023-02-12T11:09:54.742Z,103640.25
2023-02-12T11:12:30.709Z,103634.66
2023-02-12T11:15:01.872Z,103648.63
2023-02-12T11:17:35.591Z,103647.94
2023-02-12T11:20:23.616Z,103641.69
2023-02-12T11:22:58.118Z,103647.63
2023-02-12T11:25:33.215Z,103635.50
2023-02-12T11:28:15.759Z,103654.84
2023-02-12T11:30:51.416Z,103641.75
2023-02-12T11:33:41.065Z,103640.47
2023-02-12T11:36:28.689Z,103629.13
2023-02-12T11:38:57.884Z,103618.19
2023-02-12T11:41:43.430Z,103627.44
2023-02-12T11:44:12.522Z,103615.50
2023-02-12T11:49:24.035Z,103620.03
2023-02-12T11:51:51.991Z,103623.47
2023-02-12T11:54:23.982Z,103605.94
2023-02-12T11:56:55.482Z,103607.41
2023-02-12T11:59:32.277Z,103606.63
2023-02-12T12:02:15.221Z,103585.97
2023-02-12T12:04:44.824Z,103606.56
2023-02-12T12:07:15.445Z,103603.88
2023-02-12T12:09:45.956Z,103595.13
2023-02-12T12:12:19.268Z,103599.13
2023-02-12T12:15:12.719Z,103577.41
2023-02-12T12:18:03.171Z,103598.47
2023-02-12T12:20:35.645Z,103590.88
2023-02-12T12:23:09.668Z,103593.91
2023-02-12T12:25:43.371Z,103593.72
2023-02-12T12:28:30.814Z,103575.13
2023-02-12T12:31:08.019Z,103572.06
2023-02-12T12:33:41.065Z,103580.72
2023-02-12T12:36:26.220Z,103578.25
2023-02-12T12:38:57.272Z,103574.25
2023-02-12T12:41:28.239Z,103565.88
2023-02-12T12:44:05.049Z,103575.59
2023-02-12T12:46:44.529Z,103568.53
2023-02-12T12:49:35.743Z,103543.97
2023-02-12T12:52:21.610Z,103550.81
2023-02-12T12:55:04.024Z,103556.06
2023-02-12T12:57:52.864Z,103568.44
2023-02-12T13:00:45.452Z,103544.56
2023-02-12T13:03:28.880Z,103548.75
2023-02-12T13:06:07.992Z,103551.78
2023-02-12T13:08:52.232Z,103543.22
2023-02-12T13:11:34.802Z,103530.28
2023-02-12T13:14:08.577Z,103531.72
2023-02-12T13:16:41.613Z,103537.03
2023-02-12T13:19:17.908Z,103531.31
2023-02-12T13:21:49.567Z,103517.53
2023-02-12T13:24:32.320Z,103520.97
2023-02-12T13:27:01.879Z,103528.09
2023-02-12T13:29:40.229Z,103521.69
2023-02-12T13:32:14.851Z,103518.69
2023-02-12T13:34:46.351Z,103527.88
2023-02-12T13:37:21.208Z,103519.59
2023-02-12T13:40:05.055Z,103512.56
2023-02-12T13:43:05.503Z,103510.66
2023-02-12T13:45:41.495Z,103514.28
2023-02-12T13:48:24.931Z,103490.75
2023-02-12T13:51:01.005Z,103493.34
2023-02-12T13:53:42.056Z,103491.41
2023-02-12T13:56:13.190Z,103483.28
2023-02-12T13:58:56.707Z,103491.31
2023-02-12T14:01:46.792Z,103470.41
2023-02-12T14:04:29.061Z,103476.19
2023-02-12T14:07:01.239Z,103472.75
2023-02-12T14:12:35.551Z,103474.69
2023-02-12T14:15:13.265Z,103464.22
2023-02-12T14:17:53.164Z,103446.72
2023-02-12T14:20:30.682Z,103464.22
2023-02-12T14:23:32.985Z,103445.00
2023-02-12T14:26:26.273Z,103442.72
2023-02-12T14:28:58.774Z,103452.78
2023-02-12T14:31:36.111Z,103460.19
2023-02-12T14:34:52.099Z,103468.94
2023-02-12T14:37:38.400Z,103450.91
2023-02-12T14:40:50.607Z,103457.19
2023-02-12T14:43:31.187Z,103428.94
2023-02-12T14:46:00.687Z,103436.94
2023-02-12T14:48:47.359Z,103428.94
2023-02-12T14:51:37.199Z,103432.41
2023-02-12T14:54:12.519Z,103442.13
2023-02-12T14:56:43.548Z,103450.13
2023-02-12T14:59:34.416Z,103450.31
2023-02-12T15:02:04.551Z,103445.38
2023-02-12T15:04:34.402Z,103445.97
2023-02-12T15:07:10.367Z,103422.34
2023-02-12T15:09:41.964Z,103440.69
2023-02-12T15:12:16.033Z,103447.44
2023-02-12T15:14:46.573Z,103455.66
2023-02-12T15:17:17.412Z,103446.88
2023-02-12T15:19:48.554Z,103447.06
2023-02-12T15:22:28.579Z,103438.72
2023-02-12T15:25:18.716Z,103431.84
2023-02-12T15:27:55.459Z,103430.34
2023-02-12T15:30:26.683Z,103410.84
2023-02-12T15:32:56.394Z,103417.28
2023-02-12T15:35:29.920Z,103431.09
2023-02-12T15:38:00.251Z,103423.31
2023-02-12T15:40:34.692Z,103425.50
2023-02-12T15:43:04.510Z,103427.22
2023-02-12T15:45:35.704Z,103429.75
2023-02-12T15:48:13.290Z,103428.81
2023-02-12T15:50:51.471Z,103417.13
2023-02-12T15:53:19.522Z,103402.75
2023-02-12T15:55:55.128Z,103392.28
2023-02-12T15:58:25.701Z,103400.28
2023-02-12T16:00:54.558Z,103406.53
2023-02-12T16:03:31.787Z,103402.84
2023-02-12T16:06:03.322Z,103390.84
2023-02-12T16:08:33.927Z,103402.69
2023-02-12T16:11:14.110Z,103382.09
2023-02-12T16:13:44.898Z,103394.94
2023-02-12T16:16:24.863Z,103405.75
2023-02-12T16:19:09.762Z,103403.69
2023-02-12T16:21:38.766Z,103407.13
2023-02-12T16:24:10.781Z,103402.94
2023-02-12T16:26:41.555Z,103389.91
2023-02-12T16:32:08.197Z,103395.78
2023-02-12T16:34:37.349Z,103390.34
2023-02-12T16:37:33.856Z,103402.28
2023-02-12T16:40:27.507Z,103398.94
2023-02-12T16:43:22.523Z,103409.41
2023-02-12T16:45:51.223Z,103402.16
2023-02-12T16:48:41.376Z,103414.75
2023-02-12T16:51:26.513Z,103425.50
2023-02-12T16:53:58.086Z,103421.78
2023-02-12T16:59:26.854Z,103428.53
2023-02-12T17:02:03.554Z,103430.44
2023-02-12T17:04:32.086Z,103413.56
2023-02-12T17:07:00.541Z,103397.03
2023-02-12T17:09:30.617Z,103437.91
2023-02-12T17:11:58.839Z,103420.81
2023-02-12T17:15:05.161Z,103431.28
2023-02-12T17:17:33.404Z,103410.63
2023-02-12T17:20:04.572Z,103396.22
2023-02-12T17:22:32.785Z,103431.63
2023-02-12T17:25:00.971Z,103377.09
2023-02-12T17:27:30.568Z,103418.81
2023-02-12T17:30:14.107Z,103415.03
2023-02-12T17:32:43.730Z,103418.03
2023-02-12T17:35:14.191Z,103429.88
2023-02-12T17:40:25.217Z,103430.09
2023-02-12T17:42:53.338Z,103395.19
2023-02-12T17:45:31.393Z,103414.31
2023-02-12T17:48:01.352Z,103410.25
2023-02-12T17:53:30.618Z,103430.44
2023-02-12T17:55:59.333Z,103421.25
2023-02-12T17:58:27.659Z,103398.31
2023-02-12T18:00:57.759Z,103412.03
2023-02-12T18:03:34.089Z,103417.41
2023-02-12T18:06:03.139Z,103434.84
2023-02-12T18:08:31.824Z,103434.91
2023-02-12T18:11:00.013Z,103428.03
2023-02-12T18:13:30.624Z,103430.69
2023-02-12T18:16:00.501Z,103423.84
2023-02-12T18:18:59.977Z,103420.25
2023-02-12T18:21:28.252Z,103420.00
2023-02-12T18:23:56.817Z,103407.13
2023-02-12T18:26:25.060Z,103407.28
2023-02-12T18:28:57.027Z,103390.19
2023-02-12T18:31:26.753Z,103414.16
2023-02-12T18:33:54.950Z,103411.50
2023-02-12T18:36:24.858Z,103378.94
2023-02-12T18:38:54.472Z,103400.56
2023-02-12T18:41:23.694Z,103417.44
2023-02-12T18:43:51.702Z,103381.69
2023-02-12T18:46:20.885Z,103406.97
2023-02-12T18:48:50.326Z,103393.00
2023-02-12T18:51:22.558Z,103407.28
2023-02-12T18:53:57.738Z,103400.44
2023-02-12T18:56:36.892Z,103398.53
2023-02-12T18:59:06.022Z,103401.34
2023-02-12T19:01:34.370Z,103392.19
2023-02-12T19:04:04.679Z,103398.00
2023-02-12T19:06:33.590Z,103377.41
2023-02-12T19:09:05.161Z,103404.38
2023-02-12T19:11:33.683Z,103405.31
2023-02-12T19:14:04.976Z,103400.88
2023-02-12T19:16:34.003Z,103407.19
2023-02-12T19:19:03.772Z,103405.56
2023-02-12T19:21:31.885Z,103410.75
2023-02-12T19:24:03.871Z,103398.59
2023-02-12T19:26:32.451Z,103412.84
2023-02-12T19:29:00.750Z,103410.94
2023-02-12T19:31:30.253Z,103401.31
2023-02-12T19:34:01.786Z,103404.75
2023-02-12T19:36:33.642Z,103384.06
2023-02-12T19:39:04.168Z,103372.16
2023-02-12T19:41:33.006Z,103393.06
2023-02-12T19:44:02.344Z,103393.84
2023-02-12T19:46:31.240Z,103400.16
2023-02-12T19:49:00.554Z,103387.13
2023-02-12T19:51:32.151Z,103404.47
2023-02-12T19:54:05.329Z,103413.34
2023-02-12T19:56:34.491Z,103396.03
2023-02-12T19:59:02.712Z,103419.50
2023-02-12T20:01:30.926Z,103409.06
2023-02-12T20:04:01.672Z,103409.22
2023-02-12T20:06:32.094Z,103411.06
2023-02-12T20:09:02.893Z,103406.63
2023-02-12T20:11:33.985Z,103394.28
2023-02-12T20:14:02.783Z,103379.16
2023-02-12T20:16:41.690Z,103397.06
2023-02-12T20:19:13.956Z,103397.06
2023-02-12T20:24:27.763Z,103389.59
2023-02-12T20:26:56.140Z,103383.16
2023-02-12T20:29:24.690Z,103385.88
2023-02-12T20:31:52.885Z,103386.72
2023-02-12T20:34:22.109Z,103357.50
2023-02-12T20:36:50.230Z,103368.41
2023-02-12T20:39:20.347Z,103384.19
2023-02-12T20:41:50.150Z,103395.41
2023-02-12T20:44:20.317Z,103387.28
2023-02-12T20:46:54.477Z,103389.94
2023-02-12T20:49:24.770Z,103388.84
2023-02-12T20:51:55.399Z,103383.38
2023-02-12T20:54:24.022Z,103368.72
2023-02-12T20:56:56.501Z,103394.72
2023-02-12T20:59:24.476Z,103380.59
2023-02-12T21:01:52.576Z,103379.44
2023-02-12T21:04:20.749Z,103381.28
2023-02-12T21:06:52.537Z,103378.94
2023-02-12T21:09:22.991Z,103391.03
2023-02-12T21:11:50.964Z,103371.31
2023-02-12T21:14:23.618Z,103392.13
2023-02-12T21:16:52.236Z,103372.44
2023-02-12T21:19:20.529Z,103391.34
2023-02-12T21:21:48.642Z,103393.97
2023-02-12T21:24:17.256Z,103390.59
2023-02-12T21:26:45.339Z,103370.75
2023-02-12T21:29:13.291Z,103366.88
2023-02-12T21:31:43.753Z,103382.16
2023-02-12T21:34:14.482Z,103380.31
2023-02-12T21:36:43.097Z,103381.59
2023-02-12T21:39:15.913Z,103380.69
2023-02-12T21:41:44.162Z,103350.69
2023-02-12T21:44:13.246Z,103381.53
2023-02-12T21:46:47.352Z,103365.28
2023-02-12T21:49:17.519Z,103379.81
2023-02-12T21:51:45.883Z,103364.44
2023-02-12T21:54:15.494Z,103371.31
2023-02-12T21:56:45.606Z,103342.81
2023-02-12T21:59:16.091Z,103378.19
2023-02-12T22:02:51.802Z,103371.97
2023-02-12T22:05:21.656Z,103382.03
2023-02-12T22:07:52.935Z,103380.19
2023-02-12T22:10:38.895Z,103375.63
2023-02-12T22:13:06.919Z,103368.78
2023-02-12T22:15:34.889Z,103375.31
2023-02-12T22:18:25.235Z,103377.53
2023-02-12T22:20:54.852Z,103373.31
2023-02-12T22:23:22.870Z,103373.31
2023-02-12T22:25:51.490Z,103376.00
2023-02-12T22:28:21.929Z,103369.72
2023-02-12T22:31:53.756Z,103364.44
2023-02-12T22:34:22.469Z,103365.66
2023-02-12T22:41:35.010Z,103351.13
2023-02-12T22:44:08.842Z,103336.31
2023-02-12T22:46:36.844Z,103348.97
2023-02-12T22:51:54.275Z,103355.84
2023-02-12T22:54:25.567Z,103328.22
2023-02-12T22:56:54.978Z,103345.41
2023-02-12T22:59:22.971Z,103346.19
2023-02-12T23:01:50.958Z,103335.22
2023-02-12T23:04:19.628Z,103345.47
2023-02-12T23:07:24.406Z,103349.69
2023-02-12T23:09:54.955Z,103344.66
2023-02-12T23:12:26.694Z,103352.59
2023-02-12T23:14:54.933Z,103343.75
2023-02-12T23:17:22.865Z,103348.97
2023-02-12T23:19:51.023Z,103340.41
2023-02-12T23:22:20.090Z,103340.22
2023-02-12T23:24:51.079Z,103341.94
2023-02-12T23:27:20.580Z,103343.25
2023-02-12T23:29:57.324Z,103349.19
2023-02-12T23:32:32.741Z,103351.00
2023-02-12T23:35:00.821Z,103343.97
2023-02-12T23:37:28.864Z,103346.44
2023-02-12T23:39:56.884Z,103349.09
2023-02-12T23:42:24.863Z,103356.13
2023-02-12T23:44:56.728Z,103349.09
2023-02-12T23:47:27.899Z,103355.34
2023-02-12T23:49:58.335Z,103354.41
2023-02-12T23:52:26.352Z,103357.03
2023-02-12T23:54:56.781Z,103343.97
2023-02-12T23:57:26.279Z,103359.78
2023-02-12T23:59:58.393Z,103362.50
